Startpagina
METAR-TAF:

METAR-TAF

Vliegvelden :

Luchthaven Phú Quốc

Phú Quốc, Vietnam

breedte: 10-10-18N, lengte: 103-59-28E, hoogte: 11 m

Actueel weer

Dit bericht is 47 minuten geleden gemaakt, om 21:30 UTC
Wind 1 kt uit variabele richting
Temperatuur 25°C
Vochtigheid 79%
Druk 1013 hPa
Zicht 10 km of meer
Weinig wolken op 1700 ft

METAR: VVPQ 192130Z VRB01KT 9999 FEW017 25/21 Q1013 NOSIG

Tijdstip: 05:17 (22:17 UTC)

Verwachting

Dit bericht is 5 uur en het 17 minuten geleden gemaakt, om 17:00 UTC
Verwachting geldig van 19 om 18 UTC tot 20 om 18 UTC
Wind 8 kt uit het oostnoordoosten
Zicht 10 km of meer
Verspreide wolken op 1700 ft

TAF: VVPQ 191700Z 1918/2018 07008KT 9999 SCT017

Waarnemingen en weersverwachtingen van meer dan 4000 vliegvelden (METAR en TAF).

De beschikbare stations zijn de gele en rode punten op de kaart.

Ga met uw muis naar het station om de naam te zien.

Klik dan om waarnemingen en weersverwachtingen te zien.

kaart wijzigen: klik op de groene knoppen met een zwart kruis om in te zoomen, op de groene knop met een streepje om uit te zoomen of op de groene pijlen voor aangrenzende kaarten.


METAR-TAF: